sensor_id;sensor_type;location;lat;lon;timestamp;temperature;humidity
60909;DHT22;46780;48.128;-1.704;2023-08-17T00:01:00;21.00;99.90
60909;DHT22;46780;48.128;-1.704;2023-08-17T00:03:26;21.00;99.90
60909;DHT22;46780;48.128;-1.704;2023-08-17T00:05:53;20.90;99.90
60909;DHT22;46780;48.128;-1.704;2023-08-17T00:08:19;21.00;99.90
60909;DHT22;46780;48.128;-1.704;2023-08-17T00:10:47;21.00;99.90
60909;DHT22;46780;48.128;-1.704;2023-08-17T00:13:14;20.90;99.90
60909;DHT22;46780;48.128;-1.704;2023-08-17T00:15:40;20.90;99.90
60909;DHT22;46780;48.128;-1.704;2023-08-17T00:18:06;20.90;99.90
60909;DHT22;46780;48.128;-1.704;2023-08-17T00:20:33;21.00;99.90
60909;DHT22;46780;48.128;-1.704;2023-08-17T00:22:59;21.00;99.90
60909;DHT22;46780;48.128;-1.704;2023-08-17T00:25:26;21.00;99.90
60909;DHT22;46780;48.128;-1.704;2023-08-17T00:27:53;21.00;99.90
60909;DHT22;46780;48.128;-1.704;2023-08-17T00:30:20;20.90;99.90
60909;DHT22;46780;48.128;-1.704;2023-08-17T00:32:47;20.90;99.90
60909;DHT22;46780;48.128;-1.704;2023-08-17T00:35:13;20.90;99.90
60909;DHT22;46780;48.128;-1.704;2023-08-17T00:37:40;20.90;99.90
60909;DHT22;46780;48.128;-1.704;2023-08-17T00:40:07;20.90;99.90
60909;DHT22;46780;48.128;-1.704;2023-08-17T00:42:34;20.80;99.90
60909;DHT22;46780;48.128;-1.704;2023-08-17T00:45:02;20.80;99.90
60909;DHT22;46780;48.128;-1.704;2023-08-17T00:47:28;20.90;99.90
60909;DHT22;46780;48.128;-1.704;2023-08-17T00:49:56;20.80;99.90
60909;DHT22;46780;48.128;-1.704;2023-08-17T00:52:23;20.70;99.90
60909;DHT22;46780;48.128;-1.704;2023-08-17T00:54:49;20.70;99.90
60909;DHT22;46780;48.128;-1.704;2023-08-17T00:57:16;20.70;99.90
60909;DHT22;46780;48.128;-1.704;2023-08-17T00:59:43;20.80;99.90
60909;DHT22;46780;48.128;-1.704;2023-08-17T01:02:11;20.70;99.90
60909;DHT22;46780;48.128;-1.704;2023-08-17T01:04:37;20.70;99.90
60909;DHT22;46780;48.128;-1.704;2023-08-17T01:07:04;20.60;99.90
60909;DHT22;46780;48.128;-1.704;2023-08-17T01:09:33;20.60;99.90
60909;DHT22;46780;48.128;-1.704;2023-08-17T01:12:05;20.70;99.90
60909;DHT22;46780;48.128;-1.704;2023-08-17T01:14:42;20.60;99.90
60909;DHT22;46780;48.128;-1.704;2023-08-17T01:17:23;20.60;99.90
60909;DHT22;46780;48.128;-1.704;2023-08-17T01:19:52;20.60;99.90
60909;DHT22;46780;48.128;-1.704;2023-08-17T01:22:21;20.50;99.90
60909;DHT22;46780;48.128;-1.704;2023-08-17T01:24:49;20.50;99.90
60909;DHT22;46780;48.128;-1.704;2023-08-17T01:27:16;20.50;99.90
60909;DHT22;46780;48.128;-1.704;2023-08-17T01:29:42;20.50;99.90
60909;DHT22;46780;48.128;-1.704;2023-08-17T01:32:15;20.50;99.90
60909;DHT22;46780;48.128;-1.704;2023-08-17T01:34:50;20.50;99.90
60909;DHT22;46780;48.128;-1.704;2023-08-17T01:37:22;20.50;99.90
60909;DHT22;46780;48.128;-1.704;2023-08-17T01:39:55;20.50;99.90
60909;DHT22;46780;48.128;-1.704;2023-08-17T01:42:26;20.50;99.90
60909;DHT22;46780;48.128;-1.704;2023-08-17T01:44:53;20.50;99.90
60909;DHT22;46780;48.128;-1.704;2023-08-17T01:47:21;20.40;99.90
60909;DHT22;46780;48.128;-1.704;2023-08-17T01:49:47;20.40;99.90
60909;DHT22;46780;48.128;-1.704;2023-08-17T01:52:14;20.30;99.90
60909;DHT22;46780;48.128;-1.704;2023-08-17T01:54:40;20.30;99.90
60909;DHT22;46780;48.128;-1.704;2023-08-17T01:57:08;20.30;99.90
60909;DHT22;46780;48.128;-1.704;2023-08-17T01:59:35;20.30;99.90
60909;DHT22;46780;48.128;-1.704;2023-08-17T02:02:01;20.40;99.90
60909;DHT22;46780;48.128;-1.704;2023-08-17T02:04:27;20.40;99.90
60909;DHT22;46780;48.128;-1.704;2023-08-17T02:06:54;20.30;99.90
60909;DHT22;46780;48.128;-1.704;2023-08-17T02:09:20;20.20;99.90
60909;DHT22;46780;48.128;-1.704;2023-08-17T02:11:47;20.20;99.90
60909;DHT22;46780;48.128;-1.704;2023-08-17T02:14:14;20.20;99.90
60909;DHT22;46780;48.128;-1.704;2023-08-17T02:16:41;20.20;99.90
60909;DHT22;46780;48.128;-1.704;2023-08-17T02:19:07;20.20;99.90
60909;DHT22;46780;48.128;-1.704;2023-08-17T02:21:34;20.20;99.90
60909;DHT22;46780;48.128;-1.704;2023-08-17T02:24:00;20.30;99.90
60909;DHT22;46780;48.128;-1.704;2023-08-17T02:26:27;20.30;99.90
60909;DHT22;46780;48.128;-1.704;2023-08-17T02:28:53;20.30;99.90
60909;DHT22;46780;48.128;-1.704;2023-08-17T02:31:21;20.20;99.90
60909;DHT22;46780;48.128;-1.704;2023-08-17T02:33:47;20.20;99.90
60909;DHT22;46780;48.128;-1.704;2023-08-17T02:36:14;20.10;99.90
60909;DHT22;46780;48.128;-1.704;2023-08-17T02:38:40;20.10;99.90
60909;DHT22;46780;48.128;-1.704;2023-08-17T02:41:07;20.00;99.90
60909;DHT22;46780;48.128;-1.704;2023-08-17T02:43:33;20.00;99.90
60909;DHT22;46780;48.128;-1.704;2023-08-17T02:46:00;20.00;99.90
60909;DHT22;46780;48.128;-1.704;2023-08-17T02:48:28;19.90;99.90
60909;DHT22;46780;48.128;-1.704;2023-08-17T02:50:54;19.90;99.90
60909;DHT22;46780;48.128;-1.704;2023-08-17T02:53:21;19.90;99.90
60909;DHT22;46780;48.128;-1.704;2023-08-17T02:55:47;19.80;99.90
60909;DHT22;46780;48.128;-1.704;2023-08-17T02:58:13;19.80;99.90
60909;DHT22;46780;48.128;-1.704;2023-08-17T03:00:40;19.70;99.90
60909;DHT22;46780;48.128;-1.704;2023-08-17T03:03:06;19.70;99.90
60909;DHT22;46780;48.128;-1.704;2023-08-17T03:05:35;19.60;99.90
60909;DHT22;46780;48.128;-1.704;2023-08-17T03:08:01;19.60;99.90
60909;DHT22;46780;48.128;-1.704;2023-08-17T03:10:27;19.60;99.90
60909;DHT22;46780;48.128;-1.704;2023-08-17T03:12:54;19.50;99.90
60909;DHT22;46780;48.128;-1.704;2023-08-17T03:15:20;19.50;99.90
60909;DHT22;46780;48.128;-1.704;2023-08-17T03:17:47;19.50;99.90
60909;DHT22;46780;48.128;-1.704;2023-08-17T03:20:13;19.50;99.90
60909;DHT22;46780;48.128;-1.704;2023-08-17T03:22:41;19.50;99.90
60909;DHT22;46780;48.128;-1.704;2023-08-17T03:25:08;19.50;99.90
60909;DHT22;46780;48.128;-1.704;2023-08-17T03:27:35;19.50;99.90
60909;DHT22;46780;48.128;-1.704;2023-08-17T03:30:01;19.50;99.90
60909;DHT22;46780;48.128;-1.704;2023-08-17T03:32:28;19.40;99.90
60909;DHT22;46780;48.128;-1.704;2023-08-17T03:34:54;19.40;99.90
60909;DHT22;46780;48.128;-1.704;2023-08-17T03:37:21;19.40;99.90
60909;DHT22;46780;48.128;-1.704;2023-08-17T03:39:48;19.40;99.90
60909;DHT22;46780;48.128;-1.704;2023-08-17T03:42:15;19.40;99.90
60909;DHT22;46780;48.128;-1.704;2023-08-17T03:44:41;19.30;99.90
60909;DHT22;46780;48.128;-1.704;2023-08-17T03:47:08;19.30;99.90
60909;DHT22;46780;48.128;-1.704;2023-08-17T03:49:34;19.30;99.90
60909;DHT22;46780;48.128;-1.704;2023-08-17T03:52:01;19.30;99.90
60909;DHT22;46780;48.128;-1.704;2023-08-17T03:54:27;19.30;99.90
60909;DHT22;46780;48.128;-1.704;2023-08-17T03:56:55;19.30;99.90
60909;DHT22;46780;48.128;-1.704;2023-08-17T03:59:21;19.30;99.90
60909;DHT22;46780;48.128;-1.704;2023-08-17T04:01:49;19.30;99.90
60909;DHT22;46780;48.128;-1.704;2023-08-17T04:04:16;19.30;99.90
60909;DHT22;46780;48.128;-1.704;2023-08-17T04:06:42;19.30;99.90
60909;DHT22;46780;48.128;-1.704;2023-08-17T04:09:09;19.30;99.90
60909;DHT22;46780;48.128;-1.704;2023-08-17T04:11:36;19.40;99.90
60909;DHT22;46780;48.128;-1.704;2023-08-17T04:14:04;19.40;99.90
60909;DHT22;46780;48.128;-1.704;2023-08-17T04:16:31;19.40;99.90
60909;DHT22;46780;48.128;-1.704;2023-08-17T04:18:58;19.40;99.90
60909;DHT22;46780;48.128;-1.704;2023-08-17T04:21:24;19.40;99.90
60909;DHT22;46780;48.128;-1.704;2023-08-17T04:23:50;19.40;99.90
60909;DHT22;46780;48.128;-1.704;2023-08-17T04:26:17;19.40;99.90
60909;DHT22;46780;48.128;-1.704;2023-08-17T04:28:43;19.40;99.90
60909;DHT22;46780;48.128;-1.704;2023-08-17T04:31:11;19.40;99.90
60909;DHT22;46780;48.128;-1.704;2023-08-17T04:33:38;19.40;99.90
60909;DHT22;46780;48.128;-1.704;2023-08-17T04:36:04;19.40;99.90
60909;DHT22;46780;48.128;-1.704;2023-08-17T04:38:31;19.40;99.90
60909;DHT22;46780;48.128;-1.704;2023-08-17T04:40:57;19.40;99.90
60909;DHT22;46780;48.128;-1.704;2023-08-17T04:43:24;19.40;99.90
60909;DHT22;46780;48.128;-1.704;2023-08-17T04:45:50;19.40;99.90
60909;DHT22;46780;48.128;-1.704;2023-08-17T04:48:18;19.40;99.90
60909;DHT22;46780;48.128;-1.704;2023-08-17T04:50:45;19.40;99.90
60909;DHT22;46780;48.128;-1.704;2023-08-17T04:53:11;19.40;99.90
60909;DHT22;46780;48.128;-1.704;2023-08-17T04:55:37;19.40;99.90
60909;DHT22;46780;48.128;-1.704;2023-08-17T04:58:04;19.40;99.90
60909;DHT22;46780;48.128;-1.704;2023-08-17T05:00:30;19.40;99.90
60909;DHT22;46780;48.128;-1.704;2023-08-17T05:02:57;19.50;99.90
60909;DHT22;46780;48.128;-1.704;2023-08-17T05:05:25;19.50;99.90
60909;DHT22;46780;48.128;-1.704;2023-08-17T05:07:52;19.50;99.90
60909;DHT22;46780;48.128;-1.704;2023-08-17T05:10:19;19.50;99.90
60909;DHT22;46780;48.128;-1.704;2023-08-17T05:12:45;19.50;99.90
60909;DHT22;46780;48.128;-1.704;2023-08-17T05:15:12;19.50;99.90
60909;DHT22;46780;48.128;-1.704;2023-08-17T05:17:38;19.60;99.90
60909;DHT22;46780;48.128;-1.704;2023-08-17T05:20:06;19.60;99.90
60909;DHT22;46780;48.128;-1.704;2023-08-17T05:22:34;19.60;99.90
60909;DHT22;46780;48.128;-1.704;2023-08-17T05:25:00;19.70;99.90
60909;DHT22;46780;48.128;-1.704;2023-08-17T05:27:27;19.70;99.90
60909;DHT22;46780;48.128;-1.704;2023-08-17T05:29:54;19.80;99.90
60909;DHT22;46780;48.128;-1.704;2023-08-17T05:32:20;19.80;99.90
60909;DHT22;46780;48.128;-1.704;2023-08-17T05:34:47;19.80;99.90
60909;DHT22;46780;48.128;-1.704;2023-08-17T05:37:13;19.80;99.90
60909;DHT22;46780;48.128;-1.704;2023-08-17T05:39:41;19.80;99.90
60909;DHT22;46780;48.128;-1.704;2023-08-17T05:42:08;19.80;99.90
60909;DHT22;46780;48.128;-1.704;2023-08-17T05:44:34;19.70;99.90
60909;DHT22;46780;48.128;-1.704;2023-08-17T05:47:01;19.70;99.90
60909;DHT22;46780;48.128;-1.704;2023-08-17T05:49:27;19.70;99.90
60909;DHT22;46780;48.128;-1.704;2023-08-17T05:51:53;19.70;99.90
60909;DHT22;46780;48.128;-1.704;2023-08-17T05:54:20;19.80;99.90
60909;DHT22;46780;48.128;-1.704;2023-08-17T05:56:48;19.80;99.90
60909;DHT22;46780;48.128;-1.704;2023-08-17T05:59:14;19.80;99.90
60909;DHT22;46780;48.128;-1.704;2023-08-17T06:01:40;19.80;99.90
60909;DHT22;46780;48.128;-1.704;2023-08-17T06:04:07;19.80;99.90
60909;DHT22;46780;48.128;-1.704;2023-08-17T06:06:33;19.80;99.90
60909;DHT22;46780;48.128;-1.704;2023-08-17T06:09:00;19.80;99.90
60909;DHT22;46780;48.128;-1.704;2023-08-17T06:11:26;19.90;99.90
60909;DHT22;46780;48.128;-1.704;2023-08-17T06:13:54;19.90;99.90
60909;DHT22;46780;48.128;-1.704;2023-08-17T06:16:20;20.00;99.90
60909;DHT22;46780;48.128;-1.704;2023-08-17T06:18:47;20.00;99.90
60909;DHT22;46780;48.128;-1.704;2023-08-17T06:21:13;20.00;99.90
60909;DHT22;46780;48.128;-1.704;2023-08-17T06:23:40;20.10;99.90
60909;DHT22;46780;48.128;-1.704;2023-08-17T06:26:06;20.10;99.90
60909;DHT22;46780;48.128;-1.704;2023-08-17T06:28:32;20.20;99.90
60909;DHT22;46780;48.128;-1.704;2023-08-17T06:31:00;20.20;99.90
60909;DHT22;46780;48.128;-1.704;2023-08-17T06:33:27;20.20;99.90
60909;DHT22;46780;48.128;-1.704;2023-08-17T06:35:53;20.30;99.90
60909;DHT22;46780;48.128;-1.704;2023-08-17T06:38:20;20.30;99.90
60909;DHT22;46780;48.128;-1.704;2023-08-17T06:40:46;20.40;99.90
60909;DHT22;46780;48.128;-1.704;2023-08-17T06:43:13;20.40;99.90
60909;DHT22;46780;48.128;-1.704;2023-08-17T06:45:39;20.50;99.90
60909;DHT22;46780;48.128;-1.704;2023-08-17T06:48:07;20.60;99.90
60909;DHT22;46780;48.128;-1.704;2023-08-17T06:50:33;20.60;99.90
60909;DHT22;46780;48.128;-1.704;2023-08-17T06:53:01;20.70;99.90
60909;DHT22;46780;48.128;-1.704;2023-08-17T06:55:27;20.80;99.90
60909;DHT22;46780;48.128;-1.704;2023-08-17T06:57:53;20.80;99.90
60909;DHT22;46780;48.128;-1.704;2023-08-17T07:00:20;20.90;99.90
60909;DHT22;46780;48.128;-1.704;2023-08-17T07:02:47;21.00;99.90
60909;DHT22;46780;48.128;-1.704;2023-08-17T07:05:15;21.10;99.90
60909;DHT22;46780;48.128;-1.704;2023-08-17T07:07:42;21.20;99.90
60909;DHT22;46780;48.128;-1.704;2023-08-17T07:10:09;21.20;99.90
60909;DHT22;46780;48.128;-1.704;2023-08-17T07:12:35;21.30;99.90
60909;DHT22;46780;48.128;-1.704;2023-08-17T07:15:02;21.40;99.90
60909;DHT22;46780;48.128;-1.704;2023-08-17T07:17:28;21.50;99.90
60909;DHT22;46780;48.128;-1.704;2023-08-17T07:19:55;21.60;99.90
60909;DHT22;46780;48.128;-1.704;2023-08-17T07:22:23;21.70;99.90
60909;DHT22;46780;48.128;-1.704;2023-08-17T07:24:49;21.80;99.90
60909;DHT22;46780;48.128;-1.704;2023-08-17T07:27:16;21.80;99.90
60909;DHT22;46780;48.128;-1.704;2023-08-17T07:29:42;21.90;99.90
60909;DHT22;46780;48.128;-1.704;2023-08-17T07:32:09;22.20;99.90
60909;DHT22;46780;48.128;-1.704;2023-08-17T07:34:36;22.30;99.90
60909;DHT22;46780;48.128;-1.704;2023-08-17T07:37:04;22.50;99.90
60909;DHT22;46780;48.128;-1.704;2023-08-17T07:39:32;22.70;99.90
60909;DHT22;46780;48.128;-1.704;2023-08-17T07:41:59;22.80;99.70
60909;DHT22;46780;48.128;-1.704;2023-08-17T07:44:25;23.00;99.30
60909;DHT22;46780;48.128;-1.704;2023-08-17T07:46:51;23.30;98.60
60909;DHT22;46780;48.128;-1.704;2023-08-17T07:49:18;23.60;97.80
60909;DHT22;46780;48.128;-1.704;2023-08-17T07:51:45;24.00;97.00
60909;DHT22;46780;48.128;-1.704;2023-08-17T07:54:11;24.30;95.70
60909;DHT22;46780;48.128;-1.704;2023-08-17T07:56:39;24.60;94.50
60909;DHT22;46780;48.128;-1.704;2023-08-17T07:59:05;24.60;94.00
60909;DHT22;46780;48.128;-1.704;2023-08-17T08:01:32;24.50;94.00
60909;DHT22;46780;48.128;-1.704;2023-08-17T08:03:58;24.60;94.20
60909;DHT22;46780;48.128;-1.704;2023-08-17T08:06:25;24.60;94.10
60909;DHT22;46780;48.128;-1.704;2023-08-17T08:08:51;24.70;94.00
60909;DHT22;46780;48.128;-1.704;2023-08-17T08:11:17;25.00;93.50
60909;DHT22;46780;48.128;-1.704;2023-08-17T08:13:45;25.30;92.50
60909;DHT22;46780;48.128;-1.704;2023-08-17T08:16:12;25.50;92.10
60909;DHT22;46780;48.128;-1.704;2023-08-17T08:18:38;25.70;91.50
60909;DHT22;46780;48.128;-1.704;2023-08-17T08:21:05;25.90;91.10
60909;DHT22;46780;48.128;-1.704;2023-08-17T08:23:31;26.20;90.60
60909;DHT22;46780;48.128;-1.704;2023-08-17T08:25:57;26.40;90.00
60909;DHT22;46780;48.128;-1.704;2023-08-17T08:28:24;26.50;88.90
60909;DHT22;46780;48.128;-1.704;2023-08-17T08:30:52;26.50;88.20
60909;DHT22;46780;48.128;-1.704;2023-08-17T08:33:18;26.30;88.90
60909;DHT22;46780;48.128;-1.704;2023-08-17T08:35:45;26.10;90.20
60909;DHT22;46780;48.128;-1.704;2023-08-17T08:38:13;26.10;90.80
60909;DHT22;46780;48.128;-1.704;2023-08-17T08:40:41;26.10;90.80
60909;DHT22;46780;48.128;-1.704;2023-08-17T08:43:08;26.10;91.10
60909;DHT22;46780;48.128;-1.704;2023-08-17T08:45:36;26.30;91.30
60909;DHT22;46780;48.128;-1.704;2023-08-17T08:48:05;26.50;91.10
60909;DHT22;46780;48.128;-1.704;2023-08-17T08:50:32;27.20;90.40
60909;DHT22;46780;48.128;-1.704;2023-08-17T08:53:03;28.10;87.10
60909;DHT22;46780;48.128;-1.704;2023-08-17T08:55:31;29.30;81.00
60909;DHT22;46780;48.128;-1.704;2023-08-17T08:57:58;30.90;71.10
60909;DHT22;46780;48.128;-1.704;2023-08-17T09:00:25;32.50;61.20
60909;DHT22;46780;48.128;-1.704;2023-08-17T09:02:53;34.00;53.00
60909;DHT22;46780;48.128;-1.704;2023-08-17T09:05:21;35.20;48.10
60909;DHT22;46780;48.128;-1.704;2023-08-17T09:07:48;36.40;43.50
60909;DHT22;46780;48.128;-1.704;2023-08-17T09:10:15;37.20;40.30
60909;DHT22;46780;48.128;-1.704;2023-08-17T09:12:45;37.90;38.00
60909;DHT22;46780;48.128;-1.704;2023-08-17T09:15:11;38.50;35.90
60909;DHT22;46780;48.128;-1.704;2023-08-17T09:17:38;39.10;34.60
60909;DHT22;46780;48.128;-1.704;2023-08-17T09:20:06;39.80;33.10
60909;DHT22;46780;48.128;-1.704;2023-08-17T09:22:39;40.70;31.70
60909;DHT22;46780;48.128;-1.704;2023-08-17T09:25:06;41.30;30.00
60909;DHT22;46780;48.128;-1.704;2023-08-17T09:27:33;41.10;29.90
60909;DHT22;46780;48.128;-1.704;2023-08-17T09:30:04;41.10;29.80
60909;DHT22;46780;48.128;-1.704;2023-08-17T09:32:31;41.60;29.00
60909;DHT22;46780;48.128;-1.704;2023-08-17T09:35:00;41.90;28.60
60909;DHT22;46780;48.128;-1.704;2023-08-17T09:37:27;41.20;29.10
60909;DHT22;46780;48.128;-1.704;2023-08-17T09:39:55;39.60;30.90
60909;DHT22;46780;48.128;-1.704;2023-08-17T09:42:22;38.10;33.50
60909;DHT22;46780;48.128;-1.704;2023-08-17T09:44:49;38.30;33.60
60909;DHT22;46780;48.128;-1.704;2023-08-17T09:47:16;39.40;31.70
60909;DHT22;46780;48.128;-1.704;2023-08-17T09:49:43;38.90;32.40
60909;DHT22;46780;48.128;-1.704;2023-08-17T09:52:13;38.90;32.40
60909;DHT22;46780;48.128;-1.704;2023-08-17T09:54:40;39.10;31.90
60909;DHT22;46780;48.128;-1.704;2023-08-17T09:57:09;38.50;32.90
60909;DHT22;46780;48.128;-1.704;2023-08-17T09:59:36;37.60;34.30
60909;DHT22;46780;48.128;-1.704;2023-08-17T10:02:03;38.50;33.00
60909;DHT22;46780;48.128;-1.704;2023-08-17T10:04:34;40.00;31.00
60909;DHT22;46780;48.128;-1.704;2023-08-17T10:07:04;41.20;29.60
60909;DHT22;46780;48.128;-1.704;2023-08-17T10:09:35;41.30;28.90
60909;DHT22;46780;48.128;-1.704;2023-08-17T10:12:15;39.60;30.90
60909;DHT22;46780;48.128;-1.704;2023-08-17T10:14:45;39.30;31.30
60909;DHT22;46780;48.128;-1.704;2023-08-17T10:17:19;39.10;32.10
60909;DHT22;46780;48.128;-1.704;2023-08-17T10:19:50;40.50;30.20
60909;DHT22;46780;48.128;-1.704;2023-08-17T10:22:22;41.30;29.20
60909;DHT22;46780;48.128;-1.704;2023-08-17T10:24:49;41.80;28.30
60909;DHT22;46780;48.128;-1.704;2023-08-17T10:27:21;42.90;27.60
60909;DHT22;46780;48.128;-1.704;2023-08-17T10:29:48;44.30;26.10
60909;DHT22;46780;48.128;-1.704;2023-08-17T10:32:17;44.70;25.00
60909;DHT22;46780;48.128;-1.704;2023-08-17T10:34:44;42.40;26.90
60909;DHT22;46780;48.128;-1.704;2023-08-17T10:37:11;41.10;28.40
60909;DHT22;46780;48.128;-1.704;2023-08-17T10:39:45;39.70;30.10
60909;DHT22;46780;48.128;-1.704;2023-08-17T10:42:12;40.70;29.30
60909;DHT22;46780;48.128;-1.704;2023-08-17T10:44:42;42.30;27.40
60909;DHT22;46780;48.128;-1.704;2023-08-17T10:47:19;43.10;26.70
60909;DHT22;46780;48.128;-1.704;2023-08-17T10:49:48;44.40;25.50
60909;DHT22;46780;48.128;-1.704;2023-08-17T10:52:14;44.90;24.70
60909;DHT22;46780;48.128;-1.704;2023-08-17T10:54:42;43.90;25.40
60909;DHT22;46780;48.128;-1.704;2023-08-17T10:57:25;43.20;25.90
60909;DHT22;46780;48.128;-1.704;2023-08-17T11:00:16;42.60;26.10
60909;DHT22;46780;48.128;-1.704;2023-08-17T11:02:53;41.40;27.80
60909;DHT22;46780;48.128;-1.704;2023-08-17T11:05:36;40.50;28.50
60909;DHT22;46780;48.128;-1.704;2023-08-17T11:08:03;41.10;28.00
60909;DHT22;46780;48.128;-1.704;2023-08-17T11:10:30;42.50;26.70
60909;DHT22;46780;48.128;-1.704;2023-08-17T11:12:58;44.20;25.30
60909;DHT22;46780;48.128;-1.704;2023-08-17T11:15:26;44.20;24.70
60909;DHT22;46780;48.128;-1.704;2023-08-17T11:18:00;41.60;27.10
60909;DHT22;46780;48.128;-1.704;2023-08-17T11:20:27;39.00;30.20
60909;DHT22;46780;48.128;-1.704;2023-08-17T11:22:53;37.60;32.50
60909;DHT22;46780;48.128;-1.704;2023-08-17T11:25:20;39.30;31.00
60909;DHT22;46780;48.128;-1.704;2023-08-17T11:27:46;41.30;28.20
60909;DHT22;46780;48.128;-1.704;2023-08-17T11:30:13;40.70;28.50
60909;DHT22;46780;48.128;-1.704;2023-08-17T11:32:41;42.50;26.80
60909;DHT22;46780;48.128;-1.704;2023-08-17T11:35:08;41.30;27.60
60909;DHT22;46780;48.128;-1.704;2023-08-17T11:37:35;39.50;29.60
60909;DHT22;46780;48.128;-1.704;2023-08-17T11:40:01;40.10;29.30
60909;DHT22;46780;48.128;-1.704;2023-08-17T11:42:27;41.40;27.90
60909;DHT22;46780;48.128;-1.704;2023-08-17T11:44:55;40.70;28.50
60909;DHT22;46780;48.128;-1.704;2023-08-17T11:47:21;39.70;29.50
60909;DHT22;46780;48.128;-1.704;2023-08-17T11:49:49;38.30;30.90
60909;DHT22;46780;48.128;-1.704;2023-08-17T11:52:16;37.50;32.40
60909;DHT22;46780;48.128;-1.704;2023-08-17T11:54:42;38.20;31.80
60909;DHT22;46780;48.128;-1.704;2023-08-17T11:57:08;40.10;29.60
60909;DHT22;46780;48.128;-1.704;2023-08-17T11:59:35;41.40;28.10
60909;DHT22;46780;48.128;-1.704;2023-08-17T12:02:01;41.10;28.00
60909;DHT22;46780;48.128;-1.704;2023-08-17T12:04:28;40.50;28.80
60909;DHT22;46780;48.128;-1.704;2023-08-17T12:06:56;40.80;28.80
60909;DHT22;46780;48.128;-1.704;2023-08-17T12:09:22;41.30;28.30
60909;DHT22;46780;48.128;-1.704;2023-08-17T12:11:52;41.40;28.20
60909;DHT22;46780;48.128;-1.704;2023-08-17T12:14:20;40.70;28.10
60909;DHT22;46780;48.128;-1.704;2023-08-17T12:16:47;39.00;30.00
60909;DHT22;46780;48.128;-1.704;2023-08-17T12:19:13;37.20;32.60
60909;DHT22;46780;48.128;-1.704;2023-08-17T12:21:40;36.20;34.80
60909;DHT22;46780;48.128;-1.704;2023-08-17T12:24:10;35.40;36.40
60909;DHT22;46780;48.128;-1.704;2023-08-17T12:26:36;35.60;37.00
60909;DHT22;46780;48.128;-1.704;2023-08-17T12:29:07;35.50;36.60
60909;DHT22;46780;48.128;-1.704;2023-08-17T12:31:34;34.60;37.80
60909;DHT22;46780;48.128;-1.704;2023-08-17T12:34:01;33.70;39.90
60909;DHT22;46780;48.128;-1.704;2023-08-17T12:36:27;33.00;41.30
60909;DHT22;46780;48.128;-1.704;2023-08-17T12:38:54;32.60;42.30
60909;DHT22;46780;48.128;-1.704;2023-08-17T12:41:22;33.50;41.90
60909;DHT22;46780;48.128;-1.704;2023-08-17T12:43:49;34.30;39.40
60909;DHT22;46780;48.128;-1.704;2023-08-17T12:46:15;34.80;38.70
60909;DHT22;46780;48.128;-1.704;2023-08-17T12:48:42;34.40;39.00
60909;DHT22;46780;48.128;-1.704;2023-08-17T12:51:08;33.90;40.00
60909;DHT22;46780;48.128;-1.704;2023-08-17T12:53:35;33.20;41.40
60909;DHT22;46780;48.128;-1.704;2023-08-17T12:56:01;32.40;42.90
60909;DHT22;46780;48.128;-1.704;2023-08-17T12:58:29;31.70;44.60
60909;DHT22;46780;48.128;-1.704;2023-08-17T13:00:56;31.20;46.40
60909;DHT22;46780;48.128;-1.704;2023-08-17T13:03:22;30.70;47.90
60909;DHT22;46780;48.128;-1.704;2023-08-17T13:05:48;30.30;49.00
60909;DHT22;46780;48.128;-1.704;2023-08-17T13:08:15;30.20;49.90
60909;DHT22;46780;48.128;-1.704;2023-08-17T13:10:41;30.20;50.60
60909;DHT22;46780;48.128;-1.704;2023-08-17T13:13:08;30.20;50.80
60909;DHT22;46780;48.128;-1.704;2023-08-17T13:15:36;30.30;50.60
60909;DHT22;46780;48.128;-1.704;2023-08-17T13:18:03;31.60;47.70
60909;DHT22;46780;48.128;-1.704;2023-08-17T13:20:30;31.50;47.20
60909;DHT22;46780;48.128;-1.704;2023-08-17T13:22:56;32.40;45.80
60909;DHT22;46780;48.128;-1.704;2023-08-17T13:25:23;34.90;40.90
60909;DHT22;46780;48.128;-1.704;2023-08-17T13:27:49;35.40;39.10
60909;DHT22;46780;48.128;-1.704;2023-08-17T13:30:16;34.90;39.50
60909;DHT22;46780;48.128;-1.704;2023-08-17T13:32:43;34.70;41.10
60909;DHT22;46780;48.128;-1.704;2023-08-17T13:35:10;34.50;39.80
60909;DHT22;46780;48.128;-1.704;2023-08-17T13:37:37;34.20;40.30
60909;DHT22;46780;48.128;-1.704;2023-08-17T13:40:04;33.80;41.00
60909;DHT22;46780;48.128;-1.704;2023-08-17T13:42:31;33.20;41.90
60909;DHT22;46780;48.128;-1.704;2023-08-17T13:44:57;32.80;43.10
60909;DHT22;46780;48.128;-1.704;2023-08-17T13:47:24;32.80;43.40
60909;DHT22;46780;48.128;-1.704;2023-08-17T13:49:51;32.80;43.40
60909;DHT22;46780;48.128;-1.704;2023-08-17T13:52:18;32.50;44.50
60909;DHT22;46780;48.128;-1.704;2023-08-17T13:54:44;31.90;46.00
60909;DHT22;46780;48.128;-1.704;2023-08-17T13:57:11;31.40;47.20
60909;DHT22;46780;48.128;-1.704;2023-08-17T13:59:37;31.00;49.40
60909;DHT22;46780;48.128;-1.704;2023-08-17T14:02:04;30.80;49.30
60909;DHT22;46780;48.128;-1.704;2023-08-17T14:04:30;30.80;50.00
60909;DHT22;46780;48.128;-1.704;2023-08-17T14:06:58;30.70;50.40
60909;DHT22;46780;48.128;-1.704;2023-08-17T14:09:24;30.70;50.60
60909;DHT22;46780;48.128;-1.704;2023-08-17T14:11:51;30.90;50.80
60909;DHT22;46780;48.128;-1.704;2023-08-17T14:14:17;30.90;51.00
60909;DHT22;46780;48.128;-1.704;2023-08-17T14:16:44;30.90;51.10
60909;DHT22;46780;48.128;-1.704;2023-08-17T14:19:10;31.00;51.20
60909;DHT22;46780;48.128;-1.704;2023-08-17T14:21:36;31.00;50.60
60909;DHT22;46780;48.128;-1.704;2023-08-17T14:24:05;31.20;50.20
60909;DHT22;46780;48.128;-1.704;2023-08-17T14:26:32;31.30;49.80
60909;DHT22;46780;48.128;-1.704;2023-08-17T14:28:58;31.40;49.60
60909;DHT22;46780;48.128;-1.704;2023-08-17T14:31:24;31.20;50.30
60909;DHT22;46780;48.128;-1.704;2023-08-17T14:33:51;31.10;50.50
60909;DHT22;46780;48.128;-1.704;2023-08-17T14:36:17;31.00;50.60
60909;DHT22;46780;48.128;-1.704;2023-08-17T14:38:44;30.90;51.20
60909;DHT22;46780;48.128;-1.704;2023-08-17T14:41:11;30.90;51.30
60909;DHT22;46780;48.128;-1.704;2023-08-17T14:43:38;30.80;51.20
60909;DHT22;46780;48.128;-1.704;2023-08-17T14:46:04;30.90;51.40
60909;DHT22;46780;48.128;-1.704;2023-08-17T14:48:31;31.00;51.20
60909;DHT22;46780;48.128;-1.704;2023-08-17T14:50:57;31.10;50.90
60909;DHT22;46780;48.128;-1.704;2023-08-17T14:53:24;31.10;50.90
60909;DHT22;46780;48.128;-1.704;2023-08-17T14:55:50;31.10;51.10
60909;DHT22;46780;48.128;-1.704;2023-08-17T14:58:18;31.10;50.80
60909;DHT22;46780;48.128;-1.704;2023-08-17T15:00:45;31.20;51.10
60909;DHT22;46780;48.128;-1.704;2023-08-17T15:03:11;31.20;50.70
60909;DHT22;46780;48.128;-1.704;2023-08-17T15:05:38;31.20;51.10
60909;DHT22;46780;48.128;-1.704;2023-08-17T15:08:05;31.00;51.70
60909;DHT22;46780;48.128;-1.704;2023-08-17T15:10:31;30.70;52.00
60909;DHT22;46780;48.128;-1.704;2023-08-17T15:12:58;30.40;52.60
60909;DHT22;46780;48.128;-1.704;2023-08-17T15:15:26;30.10;53.90